createdAt,value
2023-01-21T00:03:06.341Z,27.88
2023-01-21T00:06:49.214Z,27.40
2023-01-21T00:10:31.008Z,29.83
2023-01-21T00:14:12.829Z,36.60
2023-01-21T00:17:54.602Z,46.55
2023-01-21T00:21:36.543Z,46.63
2023-01-21T00:25:18.288Z,48.05
2023-01-21T00:29:00.025Z,59.13
2023-01-21T00:32:41.838Z,39.67
2023-01-21T00:36:29.322Z,34.17
2023-01-21T00:43:53.357Z,29.13
2023-01-21T00:47:35.208Z,28.55
2023-01-21T00:51:18.004Z,34.80
2023-01-21T00:54:59.780Z,43.65
2023-01-21T00:58:43.489Z,42.45
2023-01-21T01:02:25.885Z,36.70
2023-01-21T01:06:14.455Z,31.60
2023-01-21T01:10:02.145Z,26.20
2023-01-21T01:13:44.529Z,28.33
2023-01-21T01:17:26.572Z,31.17
2023-01-21T01:21:15.504Z,32.03
2023-01-21T01:24:57.584Z,31.98
2023-01-21T01:28:42.371Z,33.65
2023-01-21T01:32:24.300Z,32.17
2023-01-21T01:36:09.816Z,36.42
2023-01-21T01:39:55.738Z,37.22
2023-01-21T01:43:49.612Z,32.35
2023-01-21T01:47:39.201Z,31.42
2023-01-21T01:51:28.182Z,33.17
2023-01-21T01:55:11.221Z,36.80
2023-01-21T01:59:05.028Z,34.97
2023-01-21T02:03:08.251Z,30.92
2023-01-21T02:06:52.475Z,36.15
2023-01-21T02:10:34.666Z,34.83
2023-01-21T02:14:18.802Z,32.20
2023-01-21T02:18:39.505Z,32.47
2023-01-21T02:22:50.688Z,37.35
2023-01-21T02:26:38.215Z,31.77
2023-01-21T02:34:26.897Z,28.92
2023-01-21T02:38:32.455Z,32.33
2023-01-21T02:42:36.711Z,34.30
2023-01-21T02:46:37.606Z,29.35
2023-01-21T02:50:26.484Z,31.50
2023-01-21T02:54:35.536Z,36.35
2023-01-21T02:58:20.454Z,32.10
2023-01-21T03:02:26.838Z,35.42
2023-01-21T03:06:39.403Z,29.43
2023-01-21T03:10:31.919Z,36.15
2023-01-21T03:14:45.537Z,38.67
2023-01-21T03:18:35.480Z,33.55
2023-01-21T03:22:22.280Z,34.70
2023-01-21T03:26:05.554Z,33.28
2023-01-21T03:29:49.721Z,33.28
2023-01-21T03:33:34.723Z,34.40
2023-01-21T03:37:36.855Z,31.00
2023-01-21T03:41:22.532Z,35.03
2023-01-21T03:45:13.328Z,33.13
2023-01-21T03:49:04.539Z,31.83
2023-01-21T03:52:46.895Z,34.88
2023-01-21T03:56:29.260Z,31.05
2023-01-21T04:00:12.284Z,33.15
2023-01-21T04:03:54.018Z,27.58
2023-01-21T04:07:36.026Z,33.25
2023-01-21T04:11:18.026Z,29.23
2023-01-21T04:14:59.746Z,32.70
2023-01-21T04:18:41.490Z,35.67
2023-01-21T04:22:23.630Z,38.42
2023-01-21T04:26:05.629Z,39.70
2023-01-21T04:29:47.443Z,30.20
2023-01-21T04:33:30.684Z,31.27
2023-01-21T04:37:12.423Z,32.80
2023-01-21T04:40:54.352Z,30.52
2023-01-21T04:44:36.103Z,37.20
2023-01-21T04:48:18.207Z,36.88
2023-01-21T04:51:59.954Z,34.75
2023-01-21T04:55:41.672Z,38.10
2023-01-21T04:59:23.492Z,33.08
2023-01-21T05:03:12.817Z,39.50
2023-01-21T05:07:02.688Z,32.78
2023-01-21T05:10:44.494Z,33.28
2023-01-21T05:14:26.301Z,31.15
2023-01-21T05:18:08.120Z,32.75
2023-01-21T05:21:49.892Z,43.58
2023-01-21T05:25:31.660Z,39.13
2023-01-21T05:29:13.415Z,33.80
2023-01-21T05:32:56.694Z,37.47
2023-01-21T05:36:38.823Z,33.65
2023-01-21T05:40:20.693Z,35.88
2023-01-21T05:44:05.337Z,33.70
2023-01-21T05:47:47.478Z,31.10
2023-01-21T05:51:29.344Z,33.92
2023-01-21T05:55:11.122Z,35.80
2023-01-21T05:58:57.343Z,44.33
2023-01-21T06:02:40.763Z,40.00
2023-01-21T06:06:22.776Z,32.20
2023-01-21T06:10:05.051Z,31.23
2023-01-21T06:13:46.885Z,34.47
2023-01-21T06:17:28.690Z,33.38
2023-01-21T06:21:10.469Z,43.75
2023-01-21T06:24:52.267Z,36.40
2023-01-21T06:28:34.044Z,31.00
2023-01-21T06:32:16.653Z,31.85
2023-01-21T06:35:58.495Z,36.97
2023-01-21T06:39:45.691Z,37.88
2023-01-21T06:43:28.596Z,37.70
2023-01-21T06:47:15.745Z,35.10
2023-01-21T06:51:04.938Z,40.85
2023-01-21T06:54:46.792Z,36.97
2023-01-21T06:58:28.730Z,39.78
2023-01-21T07:02:12.910Z,45.83
2023-01-21T07:05:59.789Z,41.85
2023-01-21T07:09:41.649Z,44.03
2023-01-21T07:13:23.651Z,47.45
2023-01-21T07:17:05.451Z,48.72
2023-01-21T07:20:47.207Z,33.60
2023-01-21T07:24:28.964Z,45.30
2023-01-21T07:28:10.722Z,35.33
2023-01-21T07:31:53.827Z,37.15
2023-01-21T07:35:37.665Z,36.30
2023-01-21T07:39:19.679Z,39.70
2023-01-21T07:43:01.655Z,37.33
2023-01-21T07:46:43.490Z,32.33
2023-01-21T07:50:37.640Z,38.33
2023-01-21T07:54:19.394Z,29.98
2023-01-21T07:58:01.192Z,31.75
2023-01-21T08:01:44.330Z,37.58
2023-01-21T08:05:37.406Z,34.15
2023-01-21T08:09:20.461Z,43.35
2023-01-21T08:13:03.752Z,29.80
2023-01-21T08:16:45.726Z,34.10
2023-01-21T08:20:27.669Z,41.28
2023-01-21T08:24:12.895Z,38.53
2023-01-21T08:27:54.660Z,41.17
2023-01-21T08:31:36.569Z,43.83
2023-01-21T08:35:18.699Z,49.58
2023-01-21T08:39:05.726Z,51.25
2023-01-21T08:42:47.624Z,67.30
2023-01-21T08:46:29.523Z,65.05
2023-01-21T08:50:11.600Z,90.30
2023-01-21T08:53:53.700Z,72.60
2023-01-21T08:57:35.439Z,87.30
2023-01-21T09:01:17.272Z,99.35
2023-01-21T09:04:59.181Z,95.45
2023-01-21T09:08:42.099Z,78.20
2023-01-21T09:12:23.873Z,84.18
2023-01-21T09:16:17.440Z,73.43
2023-01-21T09:19:59.222Z,74.50
2023-01-21T09:23:41.489Z,85.25
2023-01-21T09:27:27.290Z,85.18
2023-01-21T09:31:11.837Z,71.88
2023-01-21T09:34:53.630Z,84.68
2023-01-21T09:38:35.688Z,79.32
2023-01-21T09:42:21.922Z,96.43
2023-01-21T09:46:10.617Z,79.60
2023-01-21T09:50:03.457Z,96.38
2023-01-21T09:53:51.615Z,87.85
2023-01-21T09:57:51.285Z,88.88
2023-01-21T10:01:37.000Z,81.45
2023-01-21T10:05:24.611Z,89.63
2023-01-21T10:09:46.973Z,105.57
2023-01-21T10:13:37.868Z,85.95
2023-01-21T10:17:37.484Z,101.20
2023-01-21T10:21:37.069Z,94.35
2023-01-21T10:25:22.961Z,76.30
2023-01-21T10:29:05.342Z,86.70
2023-01-21T10:32:50.933Z,70.47
2023-01-21T10:36:48.656Z,117.05
2023-01-21T10:40:47.150Z,105.35
2023-01-21T10:44:35.261Z,73.90
2023-01-21T10:48:29.340Z,72.85
2023-01-21T10:52:14.749Z,81.68
2023-01-21T10:56:29.663Z,74.10
2023-01-21T11:00:34.016Z,71.70
2023-01-21T11:04:25.106Z,80.93
2023-01-21T11:08:08.324Z,76.90
2023-01-21T11:11:50.060Z,76.50
2023-01-21T11:15:33.728Z,80.45
2023-01-21T11:19:30.898Z,82.10
2023-01-21T11:23:33.525Z,84.28
2023-01-21T11:27:35.456Z,71.63
2023-01-21T11:31:24.933Z,78.22
2023-01-21T11:35:21.723Z,80.15
2023-01-21T11:39:09.747Z,64.30
2023-01-21T11:42:54.444Z,80.72
2023-01-21T11:46:38.706Z,73.60
2023-01-21T11:50:35.868Z,72.18
2023-01-21T11:54:22.742Z,67.50
2023-01-21T11:58:04.881Z,71.97
2023-01-21T12:02:17.070Z,63.45
2023-01-21T12:06:00.167Z,65.60
2023-01-21T12:09:55.163Z,72.70
2023-01-21T12:13:59.624Z,69.65
2023-01-21T12:17:49.734Z,67.95
2023-01-21T12:21:55.489Z,67.22
2023-01-21T12:25:47.606Z,67.60
2023-01-21T12:30:14.052Z,67.95
2023-01-21T12:34:13.000Z,69.30
2023-01-21T12:38:03.952Z,64.97
2023-01-21T12:42:14.988Z,72.85
2023-01-21T12:46:10.554Z,64.72
2023-01-21T12:49:58.994Z,72.10
2023-01-21T12:53:59.367Z,71.97
2023-01-21T12:58:05.876Z,81.57
2023-01-21T13:02:52.928Z,82.10
2023-01-21T13:06:53.557Z,76.72
2023-01-21T13:10:44.150Z,71.55
2023-01-21T13:14:48.508Z,74.95
2023-01-21T13:18:34.859Z,80.10
2023-01-21T13:22:43.925Z,74.07
2023-01-21T13:26:32.583Z,72.07
2023-01-21T13:30:21.101Z,71.38
2023-01-21T13:34:22.049Z,76.88
2023-01-21T13:38:27.427Z,76.25
2023-01-21T13:42:34.039Z,84.53
2023-01-21T13:46:39.292Z,86.32
2023-01-21T13:50:43.835Z,88.13
2023-01-21T13:54:38.462Z,82.15
2023-01-21T13:58:43.308Z,91.03
2023-01-21T14:03:01.955Z,109.68
2023-01-21T14:06:49.809Z,96.35
2023-01-21T14:10:41.326Z,90.75
2023-01-21T14:15:04.167Z,83.32
2023-01-21T14:18:45.876Z,84.32
2023-01-21T14:23:06.295Z,96.75
2023-01-21T14:27:00.486Z,87.53
2023-01-21T14:30:47.978Z,88.50
2023-01-21T14:35:01.704Z,93.28
2023-01-21T14:38:55.199Z,100.05
2023-01-21T14:42:41.268Z,95.32
2023-01-21T14:46:28.920Z,111.50
2023-01-21T14:50:11.085Z,107.80
2023-01-21T14:54:00.048Z,84.88
2023-01-21T14:57:42.576Z,88.72
2023-01-21T15:01:31.452Z,100.40
2023-01-21T15:05:35.900Z,83.63
2023-01-21T15:09:24.888Z,78.32
2023-01-21T15:13:37.469Z,93.00
2023-01-21T15:17:45.372Z,102.10
2023-01-21T15:21:44.757Z,86.70
2023-01-21T15:25:36.816Z,78.13
2023-01-21T15:29:36.940Z,90.97
2023-01-21T15:33:18.852Z,88.55
2023-01-21T15:37:08.476Z,94.25
2023-01-21T15:41:09.889Z,108.28
2023-01-21T15:45:29.283Z,76.88
2023-01-21T15:49:44.813Z,99.88
2023-01-21T15:54:10.672Z,103.90
2023-01-21T15:58:07.423Z,147.48
2023-01-21T16:02:21.385Z,170.07
2023-01-21T16:06:21.671Z,180.93
2023-01-21T16:10:16.338Z,181.10
2023-01-21T16:14:13.830Z,151.27
2023-01-21T16:18:20.871Z,145.88
2023-01-21T16:22:07.570Z,161.05
2023-01-21T16:25:52.036Z,129.40
2023-01-21T16:29:38.243Z,165.68
2023-01-21T16:33:20.110Z,128.40
2023-01-21T16:37:05.941Z,112.72
2023-01-21T16:40:49.779Z,105.28
2023-01-21T16:44:35.666Z,86.30
2023-01-21T16:48:26.332Z,93.38
2023-01-21T16:52:21.836Z,77.65
2023-01-21T16:56:03.734Z,79.13
2023-01-21T16:59:53.653Z,94.13
2023-01-21T17:03:36.143Z,92.90
2023-01-21T17:07:24.185Z,77.47
2023-01-21T17:11:10.510Z,80.38
2023-01-21T17:15:02.659Z,92.85
2023-01-21T17:18:52.330Z,83.35
2023-01-21T17:22:35.410Z,104.95
2023-01-21T17:26:20.399Z,111.72
2023-01-21T17:30:31.998Z,108.85
2023-01-21T17:34:32.227Z,102.43
2023-01-21T17:38:29.370Z,81.10
2023-01-21T17:42:18.981Z,83.07
2023-01-21T17:46:02.515Z,74.45
2023-01-21T17:49:45.645Z,72.85
2023-01-21T17:53:29.390Z,81.95
2023-01-21T17:57:34.762Z,87.47
2023-01-21T18:01:17.526Z,74.78
2023-01-21T18:04:59.542Z,78.18
2023-01-21T18:08:41.279Z,83.40
2023-01-21T18:12:23.101Z,70.13
2023-01-21T18:16:05.183Z,82.00
2023-01-21T18:19:47.126Z,79.93
2023-01-21T18:23:30.079Z,81.50
2023-01-21T18:27:12.283Z,73.32
2023-01-21T18:30:56.432Z,85.22
2023-01-21T18:34:38.347Z,70.38
2023-01-21T18:38:28.193Z,80.47
2023-01-21T18:42:19.887Z,68.57
2023-01-21T18:46:04.409Z,70.65
2023-01-21T18:49:49.376Z,65.95
2023-01-21T18:53:31.243Z,82.05
2023-01-21T18:57:16.669Z,78.60
2023-01-21T19:00:58.819Z,70.05
2023-01-21T19:04:40.859Z,67.18
2023-01-21T19:08:24.899Z,86.97
2023-01-21T19:12:10.601Z,78.88
2023-01-21T19:15:53.462Z,71.95
2023-01-21T19:19:35.331Z,79.63
2023-01-21T19:23:18.328Z,77.57
2023-01-21T19:27:00.379Z,76.03
2023-01-21T19:30:46.526Z,80.70
2023-01-21T19:34:28.348Z,70.82
2023-01-21T19:38:13.482Z,86.15
2023-01-21T19:42:08.024Z,88.28
2023-01-21T19:45:52.259Z,67.63
2023-01-21T19:49:34.183Z,98.18
2023-01-21T19:53:18.399Z,74.05
2023-01-21T19:57:00.282Z,87.43
2023-01-21T20:00:42.020Z,75.03
2023-01-21T20:04:23.769Z,75.13
2023-01-21T20:08:06.252Z,61.67
2023-01-21T20:11:48.111Z,68.43
2023-01-21T20:15:32.516Z,79.18
2023-01-21T20:19:16.996Z,82.95
2023-01-21T20:23:01.137Z,73.93
2023-01-21T20:26:44.216Z,71.68
2023-01-21T20:30:30.606Z,82.00
2023-01-21T20:34:14.993Z,73.28
2023-01-21T20:37:57.133Z,67.40
2023-01-21T20:41:40.846Z,75.05
2023-01-21T20:45:28.928Z,69.00
2023-01-21T20:49:11.874Z,69.00
2023-01-21T20:52:54.204Z,67.82
2023-01-21T20:56:36.055Z,88.55
2023-01-21T21:00:25.200Z,67.90
2023-01-21T21:04:06.905Z,78.38
2023-01-21T21:07:48.672Z,86.15
2023-01-21T21:11:30.428Z,88.57
2023-01-21T21:15:13.033Z,90.05
2023-01-21T21:18:56.178Z,68.50
2023-01-21T21:22:40.021Z,64.43
2023-01-21T21:26:23.272Z,61.25
2023-01-21T21:30:06.010Z,69.90
2023-01-21T21:33:47.819Z,72.45
2023-01-21T21:37:29.627Z,59.95
2023-01-21T21:41:41.395Z,77.47
2023-01-21T21:45:23.325Z,75.32
2023-01-21T21:49:05.044Z,66.50
2023-01-21T21:52:46.792Z,58.47
2023-01-21T21:56:28.572Z,70.07
2023-01-21T22:00:12.230Z,75.05
2023-01-21T22:03:54.193Z,61.38
2023-01-21T22:07:38.303Z,61.70
2023-01-21T22:11:21.411Z,69.68
2023-01-21T22:15:03.282Z,83.18
2023-01-21T22:18:45.327Z,73.28
2023-01-21T22:22:27.059Z,68.03
2023-01-21T22:26:13.077Z,67.55
2023-01-21T22:29:54.832Z,66.32
2023-01-21T22:33:38.029Z,59.83
2023-01-21T22:37:19.821Z,67.15
2023-01-21T22:41:02.077Z,70.32
2023-01-21T22:44:43.848Z,59.65
2023-01-21T22:48:26.628Z,62.00
2023-01-21T22:52:08.464Z,69.93
2023-01-21T22:55:55.044Z,55.35
2023-01-21T22:59:36.935Z,62.10
2023-01-21T23:03:19.115Z,54.20
2023-01-21T23:07:00.870Z,60.70
2023-01-21T23:10:43.351Z,73.72
2023-01-21T23:14:25.099Z,63.92
2023-01-21T23:18:06.895Z,56.75
2023-01-21T23:21:48.621Z,54.85
2023-01-21T23:25:30.404Z,50.90
2023-01-21T23:29:12.273Z,58.08
2023-01-21T23:32:54.043Z,57.53
2023-01-21T23:36:35.792Z,68.32
2023-01-21T23:40:17.830Z,70.97
2023-01-21T23:44:01.384Z,70.25
2023-01-21T23:47:43.749Z,74.20
2023-01-21T23:51:26.715Z,55.47
2023-01-21T23:55:10.209Z,65.05
2023-01-21T23:58:52.450Z,63.47
